sensor_id;sensor_type;location;lat;lon;timestamp;P1;durP1;ratioP1;P2;durP2;ratioP2
43962;SDS011;29622;45.534;9.242;2023-09-19T00:00:21;15.73;;;6.63;;
43962;SDS011;29622;45.534;9.242;2023-09-19T00:05:25;13.38;;;6.55;;
43962;SDS011;29622;45.534;9.242;2023-09-19T00:10:42;10.48;;;5.03;;
43962;SDS011;29622;45.534;9.242;2023-09-19T00:15:44;11.27;;;4.53;;
43962;SDS011;29622;45.534;9.242;2023-09-19T00:21:06;11.77;;;4.05;;
43962;SDS011;29622;45.534;9.242;2023-09-19T00:26:08;9.68;;;5.00;;
43962;SDS011;29622;45.534;9.242;2023-09-19T00:31:09;11.75;;;5.22;;
43962;SDS011;29622;45.534;9.242;2023-09-19T00:36:10;10.13;;;5.15;;
43962;SDS011;29622;45.534;9.242;2023-09-19T00:41:14;10.80;;;4.95;;
43962;SDS011;29622;45.534;9.242;2023-09-19T00:46:16;9.32;;;4.78;;
43962;SDS011;29622;45.534;9.242;2023-09-19T00:51:19;14.38;;;6.07;;
43962;SDS011;29622;45.534;9.242;2023-09-19T00:56:25;8.93;;;4.13;;
43962;SDS011;29622;45.534;9.242;2023-09-19T01:01:26;16.05;;;6.47;;
43962;SDS011;29622;45.534;9.242;2023-09-19T01:06:30;19.08;;;6.65;;
43962;SDS011;29622;45.534;9.242;2023-09-19T01:11:41;17.10;;;6.38;;
43962;SDS011;29622;45.534;9.242;2023-09-19T01:17:48;12.23;;;6.43;;
43962;SDS011;29622;45.534;9.242;2023-09-19T01:22:55;9.93;;;3.85;;
43962;SDS011;29622;45.534;9.242;2023-09-19T01:28:20;10.20;;;5.80;;
43962;SDS011;29622;45.534;9.242;2023-09-19T01:33:55;9.25;;;5.43;;
43962;SDS011;29622;45.534;9.242;2023-09-19T01:39:02;17.35;;;5.38;;
43962;SDS011;29622;45.534;9.242;2023-09-19T01:44:11;11.43;;;5.65;;
43962;SDS011;29622;45.534;9.242;2023-09-19T01:55:05;12.23;;;5.20;;
43962;SDS011;29622;45.534;9.242;2023-09-19T02:00:12;10.40;;;6.03;;
43962;SDS011;29622;45.534;9.242;2023-09-19T02:05:24;7.70;;;4.20;;
43962;SDS011;29622;45.534;9.242;2023-09-19T02:10:27;12.80;;;6.45;;
43962;SDS011;29622;45.534;9.242;2023-09-19T02:15:28;10.77;;;5.35;;
43962;SDS011;29622;45.534;9.242;2023-09-19T02:20:32;13.77;;;5.32;;
43962;SDS011;29622;45.534;9.242;2023-09-19T02:25:36;12.52;;;5.32;;
43962;SDS011;29622;45.534;9.242;2023-09-19T02:30:41;11.05;;;4.10;;
43962;SDS011;29622;45.534;9.242;2023-09-19T02:35:42;9.93;;;5.03;;
43962;SDS011;29622;45.534;9.242;2023-09-19T02:40:43;13.80;;;4.95;;
43962;SDS011;29622;45.534;9.242;2023-09-19T02:45:44;12.13;;;4.80;;
43962;SDS011;29622;45.534;9.242;2023-09-19T02:50:50;8.57;;;4.75;;
43962;SDS011;29622;45.534;9.242;2023-09-19T02:55:50;19.65;;;6.03;;
43962;SDS011;29622;45.534;9.242;2023-09-19T03:00:52;9.80;;;5.07;;
43962;SDS011;29622;45.534;9.242;2023-09-19T03:05:55;11.07;;;3.85;;
43962;SDS011;29622;45.534;9.242;2023-09-19T03:10:58;15.02;;;5.07;;
43962;SDS011;29622;45.534;9.242;2023-09-19T03:16:01;15.40;;;5.60;;
43962;SDS011;29622;45.534;9.242;2023-09-19T03:21:05;10.65;;;4.25;;
43962;SDS011;29622;45.534;9.242;2023-09-19T03:26:06;19.65;;;4.40;;
43962;SDS011;29622;45.534;9.242;2023-09-19T03:31:11;9.18;;;3.97;;
43962;SDS011;29622;45.534;9.242;2023-09-19T03:36:12;6.97;;;3.88;;
43962;SDS011;29622;45.534;9.242;2023-09-19T03:41:14;7.43;;;3.33;;
43962;SDS011;29622;45.534;9.242;2023-09-19T03:46:18;6.60;;;3.78;;
43962;SDS011;29622;45.534;9.242;2023-09-19T03:51:20;13.30;;;4.18;;
43962;SDS011;29622;45.534;9.242;2023-09-19T03:56:25;6.53;;;3.80;;
43962;SDS011;29622;45.534;9.242;2023-09-19T04:01:32;12.13;;;5.00;;
43962;SDS011;29622;45.534;9.242;2023-09-19T04:06:34;8.98;;;3.10;;
43962;SDS011;29622;45.534;9.242;2023-09-19T04:11:36;10.60;;;4.68;;
43962;SDS011;29622;45.534;9.242;2023-09-19T04:16:39;8.65;;;3.92;;
43962;SDS011;29622;45.534;9.242;2023-09-19T04:21:40;8.75;;;4.68;;
43962;SDS011;29622;45.534;9.242;2023-09-19T04:26:41;11.57;;;5.40;;
43962;SDS011;29622;45.534;9.242;2023-09-19T04:31:42;9.90;;;4.47;;
43962;SDS011;29622;45.534;9.242;2023-09-19T04:36:45;10.80;;;4.78;;
43962;SDS011;29622;45.534;9.242;2023-09-19T04:41:46;13.55;;;4.63;;
43962;SDS011;29622;45.534;9.242;2023-09-19T04:46:47;8.40;;;5.07;;
43962;SDS011;29622;45.534;9.242;2023-09-19T04:51:48;12.93;;;4.53;;
43962;SDS011;29622;45.534;9.242;2023-09-19T04:56:49;51.85;;;10.52;;
43962;SDS011;29622;45.534;9.242;2023-09-19T05:01:49;14.32;;;4.88;;
43962;SDS011;29622;45.534;9.242;2023-09-19T05:06:50;13.40;;;5.38;;
43962;SDS011;29622;45.534;9.242;2023-09-19T05:11:51;8.65;;;4.70;;
43962;SDS011;29622;45.534;9.242;2023-09-19T05:16:53;12.75;;;4.55;;
43962;SDS011;29622;45.534;9.242;2023-09-19T05:21:53;10.98;;;4.40;;
43962;SDS011;29622;45.534;9.242;2023-09-19T05:26:55;11.88;;;4.82;;
43962;SDS011;29622;45.534;9.242;2023-09-19T05:31:56;18.58;;;5.65;;
43962;SDS011;29622;45.534;9.242;2023-09-19T05:36:57;13.88;;;6.22;;
43962;SDS011;29622;45.534;9.242;2023-09-19T05:41:57;8.85;;;3.28;;
43962;SDS011;29622;45.534;9.242;2023-09-19T05:47:00;40.45;;;16.83;;
43962;SDS011;29622;45.534;9.242;2023-09-19T05:52:00;13.63;;;6.65;;
43962;SDS011;29622;45.534;9.242;2023-09-19T05:57:01;11.40;;;6.22;;
43962;SDS011;29622;45.534;9.242;2023-09-19T06:02:02;15.55;;;8.10;;
43962;SDS011;29622;45.534;9.242;2023-09-19T06:07:05;19.90;;;9.00;;
43962;SDS011;29622;45.534;9.242;2023-09-19T06:12:06;19.05;;;8.90;;
43962;SDS011;29622;45.534;9.242;2023-09-19T06:17:07;24.65;;;10.38;;
43962;SDS011;29622;45.534;9.242;2023-09-19T06:22:08;25.35;;;12.60;;
43962;SDS011;29622;45.534;9.242;2023-09-19T06:27:08;26.15;;;11.52;;
43962;SDS011;29622;45.534;9.242;2023-09-19T06:32:09;23.13;;;12.52;;
43962;SDS011;29622;45.534;9.242;2023-09-19T06:37:10;23.23;;;11.70;;
43962;SDS011;29622;45.534;9.242;2023-09-19T06:42:13;25.92;;;12.55;;
43962;SDS011;29622;45.534;9.242;2023-09-19T06:47:17;28.17;;;12.82;;
43962;SDS011;29622;45.534;9.242;2023-09-19T06:52:17;26.15;;;9.98;;
43962;SDS011;29622;45.534;9.242;2023-09-19T06:57:19;22.27;;;12.98;;
43962;SDS011;29622;45.534;9.242;2023-09-19T07:02:20;27.25;;;16.95;;
43962;SDS011;29622;45.534;9.242;2023-09-19T07:07:22;34.42;;;14.07;;
43962;SDS011;29622;45.534;9.242;2023-09-19T07:12:22;21.98;;;11.20;;
43962;SDS011;29622;45.534;9.242;2023-09-19T07:17:23;11.25;;;5.70;;
43962;SDS011;29622;45.534;9.242;2023-09-19T07:22:26;13.05;;;6.53;;
43962;SDS011;29622;45.534;9.242;2023-09-19T07:27:27;23.08;;;13.23;;
43962;SDS011;29622;45.534;9.242;2023-09-19T07:32:28;15.13;;;8.80;;
43962;SDS011;29622;45.534;9.242;2023-09-19T07:37:29;24.20;;;10.40;;
43962;SDS011;29622;45.534;9.242;2023-09-19T07:42:33;18.55;;;10.82;;
43962;SDS011;29622;45.534;9.242;2023-09-19T07:47:35;25.33;;;12.32;;
43962;SDS011;29622;45.534;9.242;2023-09-19T07:52:36;16.85;;;9.65;;
43962;SDS011;29622;45.534;9.242;2023-09-19T07:57:39;10.48;;;7.07;;
43962;SDS011;29622;45.534;9.242;2023-09-19T08:02:41;19.63;;;10.98;;
43962;SDS011;29622;45.534;9.242;2023-09-19T08:07:43;23.00;;;10.93;;
43962;SDS011;29622;45.534;9.242;2023-09-19T08:12:48;19.30;;;9.95;;
43962;SDS011;29622;45.534;9.242;2023-09-19T08:17:56;21.13;;;8.63;;
43962;SDS011;29622;45.534;9.242;2023-09-19T08:22:56;15.32;;;6.80;;
43962;SDS011;29622;45.534;9.242;2023-09-19T08:27:57;11.18;;;6.43;;
43962;SDS011;29622;45.534;9.242;2023-09-19T08:33:01;14.30;;;7.13;;
43962;SDS011;29622;45.534;9.242;2023-09-19T08:38:05;16.13;;;7.53;;
43962;SDS011;29622;45.534;9.242;2023-09-19T08:43:06;15.60;;;7.80;;
43962;SDS011;29622;45.534;9.242;2023-09-19T08:48:20;18.52;;;6.38;;
43962;SDS011;29622;45.534;9.242;2023-09-19T08:53:49;12.90;;;5.88;;
43962;SDS011;29622;45.534;9.242;2023-09-19T08:59:04;17.48;;;5.88;;
43962;SDS011;29622;45.534;9.242;2023-09-19T09:04:09;17.02;;;5.70;;
43962;SDS011;29622;45.534;9.242;2023-09-19T09:09:13;13.77;;;7.18;;
43962;SDS011;29622;45.534;9.242;2023-09-19T09:14:17;7.70;;;4.07;;
43962;SDS011;29622;45.534;9.242;2023-09-19T09:19:19;13.73;;;7.03;;
43962;SDS011;29622;45.534;9.242;2023-09-19T09:24:28;14.98;;;8.82;;
43962;SDS011;29622;45.534;9.242;2023-09-19T09:34:56;18.15;;;8.32;;
43962;SDS011;29622;45.534;9.242;2023-09-19T09:39:58;14.43;;;5.40;;
43962;SDS011;29622;45.534;9.242;2023-09-19T09:50:35;15.07;;;7.90;;
43962;SDS011;29622;45.534;9.242;2023-09-19T09:55:57;19.40;;;7.72;;
43962;SDS011;29622;45.534;9.242;2023-09-19T10:01:01;20.10;;;7.10;;
43962;SDS011;29622;45.534;9.242;2023-09-19T10:06:12;21.70;;;7.10;;
43962;SDS011;29622;45.534;9.242;2023-09-19T10:11:23;13.38;;;5.72;;
43962;SDS011;29622;45.534;9.242;2023-09-19T10:16:30;20.73;;;9.60;;
43962;SDS011;29622;45.534;9.242;2023-09-19T10:21:32;15.02;;;6.43;;
43962;SDS011;29622;45.534;9.242;2023-09-19T10:26:36;18.17;;;9.23;;
43962;SDS011;29622;45.534;9.242;2023-09-19T10:31:39;18.52;;;8.13;;
43962;SDS011;29622;45.534;9.242;2023-09-19T10:36:44;20.80;;;8.18;;
43962;SDS011;29622;45.534;9.242;2023-09-19T10:41:50;13.38;;;7.15;;
43962;SDS011;29622;45.534;9.242;2023-09-19T10:46:54;13.13;;;6.43;;
43962;SDS011;29622;45.534;9.242;2023-09-19T10:51:55;11.10;;;5.95;;
43962;SDS011;29622;45.534;9.242;2023-09-19T10:56:59;10.30;;;6.35;;
43962;SDS011;29622;45.534;9.242;2023-09-19T11:02:17;17.38;;;8.27;;
43962;SDS011;29622;45.534;9.242;2023-09-19T11:07:18;14.38;;;5.70;;
43962;SDS011;29622;45.534;9.242;2023-09-19T11:17:35;11.80;;;5.50;;
43962;SDS011;29622;45.534;9.242;2023-09-19T11:33:15;11.68;;;5.68;;
43962;SDS011;29622;45.534;9.242;2023-09-19T11:43:50;12.43;;;5.32;;
43962;SDS011;29622;45.534;9.242;2023-09-19T11:48:52;15.00;;;4.22;;
43962;SDS011;29622;45.534;9.242;2023-09-19T11:53:54;11.18;;;4.32;;
43962;SDS011;29622;45.534;9.242;2023-09-19T11:59:00;9.57;;;3.87;;
43962;SDS011;29622;45.534;9.242;2023-09-19T12:04:02;10.65;;;4.82;;
43962;SDS011;29622;45.534;9.242;2023-09-19T12:09:04;10.75;;;4.03;;
43962;SDS011;29622;45.534;9.242;2023-09-19T12:14:10;13.85;;;4.07;;
43962;SDS011;29622;45.534;9.242;2023-09-19T12:19:18;14.02;;;3.72;;
43962;SDS011;29622;45.534;9.242;2023-09-19T12:24:22;10.98;;;3.90;;
43962;SDS011;29622;45.534;9.242;2023-09-19T12:29:23;10.05;;;5.30;;
43962;SDS011;29622;45.534;9.242;2023-09-19T12:34:25;12.20;;;3.17;;
43962;SDS011;29622;45.534;9.242;2023-09-19T12:39:30;7.30;;;3.22;;
43962;SDS011;29622;45.534;9.242;2023-09-19T12:44:31;6.00;;;2.90;;
43962;SDS011;29622;45.534;9.242;2023-09-19T12:50:04;10.07;;;3.55;;
43962;SDS011;29622;45.534;9.242;2023-09-19T12:55:18;11.98;;;4.07;;
43962;SDS011;29622;45.534;9.242;2023-09-19T13:00:31;10.18;;;3.90;;
43962;SDS011;29622;45.534;9.242;2023-09-19T13:05:48;7.45;;;3.10;;
43962;SDS011;29622;45.534;9.242;2023-09-19T13:11:06;9.98;;;3.70;;
43962;SDS011;29622;45.534;9.242;2023-09-19T13:16:12;8.05;;;3.58;;
43962;SDS011;29622;45.534;9.242;2023-09-19T13:21:30;8.07;;;3.45;;
43962;SDS011;29622;45.534;9.242;2023-09-19T13:26:49;13.45;;;3.50;;
43962;SDS011;29622;45.534;9.242;2023-09-19T13:31:50;7.32;;;3.60;;
43962;SDS011;29622;45.534;9.242;2023-09-19T13:36:55;8.18;;;3.80;;
43962;SDS011;29622;45.534;9.242;2023-09-19T13:41:55;7.35;;;2.92;;
43962;SDS011;29622;45.534;9.242;2023-09-19T13:46:56;8.32;;;3.63;;
43962;SDS011;29622;45.534;9.242;2023-09-19T13:51:57;12.07;;;3.92;;
43962;SDS011;29622;45.534;9.242;2023-09-19T13:57:01;8.57;;;3.78;;
43962;SDS011;29622;45.534;9.242;2023-09-19T14:02:01;11.70;;;4.57;;
43962;SDS011;29622;45.534;9.242;2023-09-19T14:07:05;8.73;;;3.60;;
43962;SDS011;29622;45.534;9.242;2023-09-19T14:12:07;12.88;;;3.65;;
43962;SDS011;29622;45.534;9.242;2023-09-19T14:17:08;11.48;;;4.05;;
43962;SDS011;29622;45.534;9.242;2023-09-19T14:22:10;8.40;;;3.33;;
43962;SDS011;29622;45.534;9.242;2023-09-19T14:27:10;7.72;;;3.60;;
43962;SDS011;29622;45.534;9.242;2023-09-19T14:32:11;9.93;;;3.80;;
43962;SDS011;29622;45.534;9.242;2023-09-19T14:37:12;12.00;;;3.60;;
43962;SDS011;29622;45.534;9.242;2023-09-19T14:42:14;6.20;;;3.10;;
43962;SDS011;29622;45.534;9.242;2023-09-19T14:47:17;8.85;;;2.90;;
43962;SDS011;29622;45.534;9.242;2023-09-19T14:52:18;9.13;;;3.70;;
43962;SDS011;29622;45.534;9.242;2023-09-19T14:57:19;10.27;;;3.13;;
43962;SDS011;29622;45.534;9.242;2023-09-19T15:02:19;9.20;;;3.30;;
43962;SDS011;29622;45.534;9.242;2023-09-19T15:07:21;7.75;;;3.05;;
43962;SDS011;29622;45.534;9.242;2023-09-19T15:12:21;7.65;;;2.22;;
43962;SDS011;29622;45.534;9.242;2023-09-19T15:17:23;10.02;;;2.80;;
43962;SDS011;29622;45.534;9.242;2023-09-19T15:22:25;6.78;;;2.10;;
43962;SDS011;29622;45.534;9.242;2023-09-19T15:27:26;6.55;;;1.83;;
43962;SDS011;29622;45.534;9.242;2023-09-19T15:32:28;5.80;;;2.22;;
43962;SDS011;29622;45.534;9.242;2023-09-19T15:37:29;6.25;;;3.33;;
43962;SDS011;29622;45.534;9.242;2023-09-19T15:42:29;4.60;;;1.75;;
43962;SDS011;29622;45.534;9.242;2023-09-19T15:47:30;7.97;;;2.47;;
43962;SDS011;29622;45.534;9.242;2023-09-19T15:52:31;6.65;;;2.58;;
43962;SDS011;29622;45.534;9.242;2023-09-19T15:57:32;13.40;;;2.08;;
43962;SDS011;29622;45.534;9.242;2023-09-19T16:02:34;6.43;;;1.98;;
43962;SDS011;29622;45.534;9.242;2023-09-19T16:07:35;9.88;;;2.53;;
43962;SDS011;29622;45.534;9.242;2023-09-19T16:12:35;10.65;;;2.13;;
43962;SDS011;29622;45.534;9.242;2023-09-19T16:17:37;8.07;;;2.58;;
43962;SDS011;29622;45.534;9.242;2023-09-19T16:22:38;9.45;;;2.70;;
43962;SDS011;29622;45.534;9.242;2023-09-19T16:27:40;12.90;;;2.50;;
43962;SDS011;29622;45.534;9.242;2023-09-19T16:32:40;12.50;;;3.65;;
43962;SDS011;29622;45.534;9.242;2023-09-19T16:37:41;7.72;;;2.70;;
43962;SDS011;29622;45.534;9.242;2023-09-19T16:42:42;6.75;;;2.58;;
43962;SDS011;29622;45.534;9.242;2023-09-19T16:47:43;8.27;;;2.38;;
43962;SDS011;29622;45.534;9.242;2023-09-19T16:52:44;6.63;;;2.28;;
43962;SDS011;29622;45.534;9.242;2023-09-19T16:57:44;7.93;;;3.17;;
43962;SDS011;29622;45.534;9.242;2023-09-19T17:02:46;8.38;;;2.67;;
43962;SDS011;29622;45.534;9.242;2023-09-19T17:07:47;7.70;;;2.53;;
43962;SDS011;29622;45.534;9.242;2023-09-19T17:12:48;12.30;;;5.75;;
43962;SDS011;29622;45.534;9.242;2023-09-19T17:17:48;7.28;;;3.85;;
43962;SDS011;29622;45.534;9.242;2023-09-19T17:22:49;9.63;;;3.25;;
43962;SDS011;29622;45.534;9.242;2023-09-19T17:27:50;5.72;;;2.17;;
43962;SDS011;29622;45.534;9.242;2023-09-19T17:32:51;6.63;;;3.13;;
43962;SDS011;29622;45.534;9.242;2023-09-19T17:37:51;14.57;;;7.55;;
43962;SDS011;29622;45.534;9.242;2023-09-19T17:42:52;39.88;;;20.80;;
43962;SDS011;29622;45.534;9.242;2023-09-19T17:47:53;45.28;;;22.85;;
43962;SDS011;29622;45.534;9.242;2023-09-19T17:52:55;11.65;;;5.63;;
43962;SDS011;29622;45.534;9.242;2023-09-19T17:57:56;9.68;;;2.85;;
43962;SDS011;29622;45.534;9.242;2023-09-19T18:03:01;6.57;;;2.47;;
43962;SDS011;29622;45.534;9.242;2023-09-19T18:08:03;15.68;;;3.72;;
43962;SDS011;29622;45.534;9.242;2023-09-19T18:13:05;6.00;;;2.33;;
43962;SDS011;29622;45.534;9.242;2023-09-19T18:18:06;9.07;;;2.95;;
43962;SDS011;29622;45.534;9.242;2023-09-19T18:23:07;9.57;;;3.25;;
43962;SDS011;29622;45.534;9.242;2023-09-19T18:28:08;13.43;;;3.50;;
43962;SDS011;29622;45.534;9.242;2023-09-19T18:33:10;14.60;;;3.72;;
43962;SDS011;29622;45.534;9.242;2023-09-19T18:38:10;7.72;;;3.47;;
43962;SDS011;29622;45.534;9.242;2023-09-19T18:43:11;9.65;;;3.50;;
43962;SDS011;29622;45.534;9.242;2023-09-19T18:48:12;10.95;;;4.57;;
43962;SDS011;29622;45.534;9.242;2023-09-19T18:53:16;7.97;;;4.18;;
43962;SDS011;29622;45.534;9.242;2023-09-19T18:58:17;10.85;;;5.43;;
43962;SDS011;29622;45.534;9.242;2023-09-19T19:03:18;27.73;;;5.57;;
43962;SDS011;29622;45.534;9.242;2023-09-19T19:08:18;9.40;;;4.18;;
43962;SDS011;29622;45.534;9.242;2023-09-19T19:13:19;10.77;;;3.95;;
43962;SDS011;29622;45.534;9.242;2023-09-19T19:18:20;11.10;;;4.43;;
43962;SDS011;29622;45.534;9.242;2023-09-19T19:23:21;14.07;;;4.95;;
43962;SDS011;29622;45.534;9.242;2023-09-19T19:28:21;17.52;;;5.80;;
43962;SDS011;29622;45.534;9.242;2023-09-19T19:33:22;12.40;;;4.10;;
43962;SDS011;29622;45.534;9.242;2023-09-19T19:38:25;18.40;;;5.50;;
43962;SDS011;29622;45.534;9.242;2023-09-19T19:43:27;11.30;;;6.03;;
43962;SDS011;29622;45.534;9.242;2023-09-19T19:48:28;16.42;;;6.25;;
43962;SDS011;29622;45.534;9.242;2023-09-19T19:53:29;25.83;;;7.47;;
43962;SDS011;29622;45.534;9.242;2023-09-19T19:58:33;14.18;;;6.95;;
43962;SDS011;29622;45.534;9.242;2023-09-19T20:03:35;17.38;;;5.53;;
43962;SDS011;29622;45.534;9.242;2023-09-19T20:08:36;12.80;;;5.43;;
43962;SDS011;29622;45.534;9.242;2023-09-19T20:13:37;14.27;;;5.10;;
43962;SDS011;29622;45.534;9.242;2023-09-19T20:18:40;11.35;;;5.13;;
43962;SDS011;29622;45.534;9.242;2023-09-19T20:23:41;10.60;;;5.00;;
43962;SDS011;29622;45.534;9.242;2023-09-19T20:28:44;8.63;;;4.80;;
43962;SDS011;29622;45.534;9.242;2023-09-19T20:33:45;15.32;;;3.90;;
43962;SDS011;29622;45.534;9.242;2023-09-19T20:38:59;13.90;;;4.82;;
43962;SDS011;29622;45.534;9.242;2023-09-19T20:44:01;13.98;;;5.30;;
43962;SDS011;29622;45.534;9.242;2023-09-19T20:49:11;9.45;;;5.22;;
43962;SDS011;29622;45.534;9.242;2023-09-19T20:54:25;13.43;;;5.35;;
43962;SDS011;29622;45.534;9.242;2023-09-19T20:59:55;12.95;;;5.63;;
43962;SDS011;29622;45.534;9.242;2023-09-19T21:05:17;18.77;;;6.53;;
43962;SDS011;29622;45.534;9.242;2023-09-19T21:10:33;15.03;;;5.60;;
43962;SDS011;29622;45.534;9.242;2023-09-19T21:15:40;17.17;;;6.13;;
43962;SDS011;29622;45.534;9.242;2023-09-19T21:20:41;9.88;;;5.63;;
43962;SDS011;29622;45.534;9.242;2023-09-19T21:25:42;14.77;;;6.60;;
43962;SDS011;29622;45.534;9.242;2023-09-19T21:30:59;12.65;;;6.10;;
43962;SDS011;29622;45.534;9.242;2023-09-19T21:36:04;12.02;;;5.57;;
43962;SDS011;29622;45.534;9.242;2023-09-19T21:41:19;8.35;;;4.20;;
43962;SDS011;29622;45.534;9.242;2023-09-19T21:46:20;10.80;;;4.40;;
43962;SDS011;29622;45.534;9.242;2023-09-19T21:51:22;9.85;;;4.32;;
43962;SDS011;29622;45.534;9.242;2023-09-19T21:56:23;9.20;;;4.25;;
43962;SDS011;29622;45.534;9.242;2023-09-19T22:01:24;20.25;;;8.65;;
43962;SDS011;29622;45.534;9.242;2023-09-19T22:06:25;12.95;;;5.43;;
43962;SDS011;29622;45.534;9.242;2023-09-19T22:11:26;13.85;;;4.72;;
43962;SDS011;29622;45.534;9.242;2023-09-19T22:16:27;13.20;;;4.53;;
43962;SDS011;29622;45.534;9.242;2023-09-19T22:21:31;7.88;;;3.78;;
43962;SDS011;29622;45.534;9.242;2023-09-19T22:26:37;9.10;;;4.28;;
43962;SDS011;29622;45.534;9.242;2023-09-19T22:31:39;8.65;;;4.28;;
43962;SDS011;29622;45.534;9.242;2023-09-19T22:36:42;12.13;;;4.40;;
43962;SDS011;29622;45.534;9.242;2023-09-19T22:41:47;13.20;;;3.95;;
43962;SDS011;29622;45.534;9.242;2023-09-19T22:46:48;14.73;;;4.22;;
43962;SDS011;29622;45.534;9.242;2023-09-19T22:51:49;14.85;;;4.22;;
43962;SDS011;29622;45.534;9.242;2023-09-19T22:56:51;8.45;;;3.35;;
43962;SDS011;29622;45.534;9.242;2023-09-19T23:01:56;8.88;;;3.53;;
43962;SDS011;29622;45.534;9.242;2023-09-19T23:06:58;10.13;;;4.95;;
43962;SDS011;29622;45.534;9.242;2023-09-19T23:12:05;11.00;;;4.22;;
43962;SDS011;29622;45.534;9.242;2023-09-19T23:17:10;9.38;;;3.90;;
43962;SDS011;29622;45.534;9.242;2023-09-19T23:22:14;8.20;;;3.25;;
43962;SDS011;29622;45.534;9.242;2023-09-19T23:27:18;8.38;;;3.10;;
43962;SDS011;29622;45.534;9.242;2023-09-19T23:32:27;11.38;;;4.10;;
43962;SDS011;29622;45.534;9.242;2023-09-19T23:37:28;7.63;;;4.18;;
43962;SDS011;29622;45.534;9.242;2023-09-19T23:42:29;16.27;;;4.40;;
43962;SDS011;29622;45.534;9.242;2023-09-19T23:47:37;12.95;;;4.47;;
43962;SDS011;29622;45.534;9.242;2023-09-19T23:57:40;16.98;;;7.55;;
